DW1231 Weather Reports


Display with metric or nautical units.
time (UTC)temp
F
wind
direction
speed
MPH
gust
MPH
rain 1hr
in
rain 24hr
in
rain mn
in
humidity
%
barometer
mb
20200702130121 79 180 4.0 7.0 0.00 0.00 0.00 86 1015.7
20200702125119 78 157 2.0 8.0 0.00 0.00 0.00 86 1015.6
20200702124120 78 157 4.0 8.0 0.00 0.00 0.00 87 1015.7
20200702123119 77 157 7.0 10.0 0.00 0.00 0.00 87 1015.8
20200702122121 77 180 5.0 9.0 0.00 0.00 0.00 87 1015.7
20200702121119 77 157 5.0 8.0 0.00 0.00 0.00 87 1015.6
20200702120120 76 157 3.0 8.0 0.00 0.00 0.00 87 1015.5
20200702115119 76 157 4.0 8.0 0.00 0.00 0.00 87 1015.4
20200702114120 76 0.0 0.0 0.00 0.00 0.00 87 1015.4
20200702113119 76 135 3.0 4.0 0.00 0.00 0.00 87 1015.1
20200702112119 76 0.0 1.0 0.00 0.00 0.00 87 1015.0
20200702111120 76 0.0 0.0 0.00 0.00 0.00 87 1015.0
20200702110120 76 0.0 0.0 0.00 0.00 0.00 86 1014.9
20200702105119 77 0.0 0.0 0.00 0.00 0.00 85 1014.7
20200702104119 77 0.0 1.0 0.00 0.00 0.00 85 1014.6
20200702103120 78 0.0 0.0 0.00 0.00 0.00 85 1014.5
20200702102121 78 180 1.0 4.0 0.00 0.00 0.00 85 1014.4
20200702101120 78 202 1.0 4.0 0.00 0.00 0.00 85 1014.2
20200702100119 78 0.0 1.0 0.00 0.00 0.00 85 1014.1
20200702095119 78 202 2.0 6.0 0.00 0.00 0.00 84 1014.0
20200702094119 78 157 2.0 4.0 0.00 0.00 0.00 84 1013.9
20200702093118 78 202 2.0 5.0 0.00 0.00 0.00 84 1013.9
20200702092119 78 202 3.0 5.0 0.00 0.00 0.00 84 1013.8
20200702091119 78 180 3.0 6.0 0.00 0.00 0.00 83 1013.5
20200702090119 78 202 2.0 4.0 0.00 0.00 0.00 83 1013.4
20200702085119 79 0.0 0.0 0.00 0.00 0.00 83 1013.5
20200702084119 79 202 3.0 8.0 0.00 0.00 0.00 83 1013.5
20200702083120 79 180 2.0 5.0 0.00 0.00 0.00 83 1013.5
20200702082120 79 202 3.0 5.0 0.00 0.00 0.00 83 1013.6
20200702081119 79 180 2.0 4.0 0.00 0.00 0.00 83 1013.6
20200702080120 79 180 2.0 5.0 0.00 0.00 0.00 83 1013.7
20200702075119 79 180 3.0 5.0 0.00 0.00 0.00 82 1013.7
20200702074119 79 180 2.0 4.0 0.00 0.00 0.00 82 1013.6
20200702073119 79 180 2.0 5.0 0.00 0.00 0.00 82 1013.7
20200702072120 80 202 2.0 7.0 0.00 0.00 0.00 82 1013.9
20200702071120 80 180 3.0 6.0 0.00 0.00 0.00 82 1014.0
20200702070119 80 180 4.0 8.0 0.00 0.00 0.00 83 1014.0
20200702065120 79 157 2.0 4.0 0.00 0.00 0.00 83 1014.2
20200702064120 79 0 1.0 6.0 0.00 0.00 0.00 84 1014.1
20200702063118 79 180 2.0 3.0 0.00 0.00 0.00 84 1014.2
20200702062120 79 202 1.0 3.0 0.00 0.00 0.00 85 1014.1
20200702061122 79 157 2.0 6.0 0.00 0.00 0.00 85 1014.1
20200702060119 79 157 4.0 8.0 0.00 0.00 0.00 85 1014.2
20200702055119 79 0.0 0.0 0.00 0.00 0.00 85 1014.2
20200702054123 79 0.0 0.0 0.00 0.00 0.00 84 1014.1
20200702053120 79 0.0 0.0 0.00 0.00 0.00 84 1013.9
20200702052119 80 0.0 0.0 0.00 0.00 0.00 84 1013.9
20200702051120 80 0.0 0.0 0.00 0.00 0.00 83 1013.7
20200702050119 80 0.0 0.0 0.00 0.00 0.00 83 1013.5
20200702045121 80 0.0 0.0 0.00 0.00 0.00 83 1013.3
20200702044120 80 180 1.0 2.0 0.00 0.00 0.00 82 1013.3
20200702043119 81 0.0 0.0 0.00 0.00 0.00 81 1013.4
20200702042119 81 0.0 0.0 0.00 0.00 0.00 81 1013.4
20200702041119 81 0.0 0.0 0.00 0.00 0.00 81 1013.4
20200702040121 81 0.0 0.0 0.00 0.00 0.00 80 1013.5
20200702035119 81 135 3.0 4.0 0.00 0.00 0.00 80 1013.5
20200702034119 82 135 2.0 4.0 0.00 0.00 0.00 80 1013.3
20200702033132 82 0.0 0.0 0.00 0.00 0.00 80 1013.3
20200702032119 82 157 4.0 6.0 0.00 0.00 0.00 79 1013.1
20200702031119 82 0 3.0 6.0 0.00 0.00 0.00 80 1012.9
20200702030121 82 0 3.0 6.0 0.00 0.00 0.00 79 1012.7
20200702025121 83 157 5.0 7.0 0.00 0.00 0.00 79 1012.6
20200702024121 83 157 2.0 6.0 0.00 0.00 0.00 79 1012.5
20200702023121 83 0.0 0.0 0.00 0.00 0.00 78 1012.3
20200702022118 84 135 4.0 8.0 0.00 0.00 0.00 75 1012.1
20200702021119 84 180 5.0 8.0 0.00 0.00 0.00 75 1011.7
20200702020118 85 0 4.0 6.0 0.00 0.00 0.00 75 1011.9
20200702015119 85 0 6.0 9.0 0.00 0.00 0.00 74 1012.1
20200702014118 85 0 3.0 8.0 0.00 0.00 0.00 72 1012.2
20200702013119 86 0 7.0 9.0 0.00 0.00 0.00 72 1012.3
20200702012120 86 135 5.0 8.0 0.00 0.00 0.00 71 1012.4
20200702011122 87 157 6.0 8.0 0.00 0.00 0.00 69 1012.2
20200702010120 87 0 1.0 9.0 0.00 0.00 0.00 68 1012.3
20200702005121 88 180 5.0 9.0 0.00 0.00 0.00 68 1012.0
20200702004120 89 180 7.0 9.0 0.00 0.00 0.00 66 1011.7
20200702003119 89 0 9.0 14.0 0.00 0.00 0.00 65 1011.5
20200702002121 90 0 5.0 10.0 0.00 0.00 0.00 65 1011.3
20200702001119 90 202 4.0 9.0 0.00 0.00 0.00 63 1011.1
20200702000121 90 0 5.0 10.0 0.00 0.00 0.00 64 1011.2
20200701235121 90 180 7.0 9.0 0.00 0.00 0.00 63 1010.8
20200701234120 91 0 4.0 8.0 0.00 0.00 0.00 63 1010.7
20200701233120 91 157 11.0 16.0 0.00 0.00 0.00 62 1010.6
20200701232121 91 0 9.0 13.0 0.00 0.00 0.00 62 1010.6
20200701231121 91 0 9.0 14.0 0.00 0.00 0.00 62 1010.8
20200701230119 91 0 10.0 16.0 0.00 0.00 0.00 61 1011.0
20200701225119 91 0 4.0 11.0 0.00 0.00 0.00 61 1011.1
20200701224119 92 0 7.0 14.0 0.00 0.00 0.00 61 1011.3
20200701223120 92 0 13.0 18.0 0.00 0.00 0.00 61 1011.3
20200701222119 92 0 13.0 18.0 0.00 0.00 0.00 60 1011.5
20200701221122 92 0 9.0 14.0 0.00 0.00 0.00 60 1011.6
20200701220119 92 0 8.0 13.0 0.00 0.00 0.00 61 1011.9
20200701215119 93 157 10.0 18.0 0.00 0.00 0.00 60 1011.8
20200701214121 93 0 6.0 12.0 0.00 0.00 0.00 60 1011.9
20200701213122 93 0 6.0 12.0 0.00 0.00 0.00 61 1012.2
20200701212121 93 0 10.0 17.0 0.00 0.00 0.00 61 1012.2
20200701211119 93 0 10.0 17.0 0.00 0.00 0.00 59 1012.1
20200701210119 93 0 11.0 15.0 0.00 0.00 0.00 60 1012.3
20200701205119 93 202 5.0 9.0 0.00 0.00 0.00 62 1012.1
20200701204119 93 0 8.0 12.0 0.00 0.00 0.00 62 1012.2
20200701203119 92 0 6.0 11.0 0.00 0.00 0.00 61 1012.3
20200701202120 92 0 10.0 13.0 0.00 0.00 0.00 62 1012.4
20200701201119 92 0 5.0 9.0 0.00 0.00 0.00 64 1012.3
20200701200119 92 180 5.0 7.0 0.00 0.00 0.00 61 1012.2
20200701195119 93 157 7.0 11.0 0.00 0.00 0.00 62 1012.2
20200701194118 92 0 7.0 13.0 0.00 0.00 0.00 62 1012.4
20200701193118 92 202 5.0 8.0 0.00 0.00 0.00 62 1012.6
20200701192127 92 0 5.0 10.0 0.00 0.00 0.00 64 1012.5
20200701191119 92 0 8.0 12.0 0.00 0.00 0.00 63 1012.7
20200701190119 92 180 10.0 17.0 0.00 0.00 0.00 63 1012.7
20200701185119 92 157 4.0 6.0 0.00 0.00 0.00 64 1012.9
20200701184119 92 0 7.0 11.0 0.00 0.00 0.00 64 1012.9
20200701183119 91 0 9.0 13.0 0.00 0.00 0.00 64 1012.9
20200701182118 91 180 3.0 6.0 0.00 0.00 0.00 66 1013.0
20200701181119 90 202 11.0 16.0 0.00 0.00 0.00 64 1013.0
20200701180119 90 202 6.0 11.0 0.00 0.00 0.00 67 1013.1
20200701175119 90 225 6.0 10.0 0.00 0.00 0.00 66 1013.2
20200701174120 89 0 8.0 13.0 0.00 0.00 0.00 67 1013.2
20200701173121 90 180 9.0 15.0 0.00 0.00 0.00 66 1013.2
20200701172119 89 0 5.0 9.0 0.00 0.00 0.00 68 1013.1
20200701171119 89 202 6.0 10.0 0.00 0.00 0.00 68 1013.2
20200701170119 89 0 7.0 14.0 0.00 0.00 0.00 68 1013.2
20200701165119 88 202 5.0 8.0 0.00 0.00 0.00 69 1013.3
20200701164121 88 202 5.0 9.0 0.00 0.00 0.00 71 1013.2
20200701163119 87 225 6.0 10.0 0.00 0.00 0.00 69 1013.2
20200701162119 87 202 9.0 12.0 0.00 0.00 0.00 71 1013.4
20200701161120 87 202 7.0 11.0 0.00 0.00 0.00 71 1013.2
20200701160119 86 202 3.0 7.0 0.00 0.00 0.00 74 1013.1
20200701155121 86 0 8.0 13.0 0.00 0.00 0.00 72 1013.1
20200701154119 86 202 8.0 15.0 0.00 0.00 0.00 73 1013.1
20200701153120 85 202 7.0 12.0 0.00 0.00 0.00 76 1013.0
20200701152119 84 202 7.0 12.0 0.00 0.00 0.00 76 1013.0
20200701151119 83 202 6.0 13.0 0.00 0.00 0.00 77 1013.1
20200701150119 83 202 12.0 20.0 0.00 0.00 0.00 77 1013.0
20200701145119 83 202 9.0 19.0 0.00 0.00 0.00 78 1013.1
20200701144120 82 0 5.0 10.0 0.00 0.00 0.00 79 1012.9
20200701143118 82 157 7.0 10.0 0.00 0.00 0.00 80 1013.2
20200701142119 81 0 7.0 10.0 0.00 0.00 0.00 81 1013.2
20200701141119 81 180 10.0 19.0 0.00 0.00 0.00 81 1012.9
20200701140120 81 202 7.0 19.0 0.00 0.00 0.00 82 1012.9
20200701135121 80 202 7.0 16.0 0.00 0.00 0.00 82 1012.9
20200701134119 80 180 4.0 11.0 0.00 0.00 0.00 83 1012.7
20200701133121 80 202 5.0 7.0 0.00 0.00 0.00 83 1012.5
20200701132119 80 202 6.0 15.0 0.00 0.00 0.00 83 1012.5
20200701131119 80 202 5.0 9.0 0.00 0.00 0.00 84 1012.4